Mahlon Sweet Field
KEUG : rendu visible

Aérodrome :











RETROUVEZ-NOUS SUR...

 
LOGIN :

S'inscrire | Disclaimer

   EN    FR    IT 

 









Légende :    VFR   VFR Marginal   IFR   IFR Intensif   IFR Très Intensif
Visi : 
Plafond : 
>= 8 km
>= 3000ft
5 à 8 km
1000 à 3000 ft
1500m à 5 km
500 à 1000 ft
800 à 1500m
200 à 500 ft
< 800m
< 200 ft
Symboles :   Orages  Brouillard  Fortes neiges  Fortes précipitations  Vent > 20 kt






- Altitude de l'aérodrome : 374 ft
- Code IATA : EUG


KEUG - Mahlon Sweet Field

DERNIER METAR :
  • 241154Z AUTO 18004KT 10SM OVC055 02/01 A3062 RMK AO2 SLP370 70011 T00220011 10044 20017 51006

METARs EXPIRÉS :
  • 241054Z AUTO 00000KT 10SM FEW045 BKN060 03/02 A3061 RMK AO2 SLP369 T00280017
  • 240954Z AUTO 15005KT 10SM BKN060 03/02 A3061 RMK AO2 SLP367 T00330022

TAF KEUG
Valide du 24 à 12h jusqu'au 25 à 12h UTC


241120Z 2412/2512 00000KT P6SM FEW045 BKN060
FM242300 VRB03KT P6SM SCT070
FM251000 00000KT 3SM BR FEW005



MET'MAP, la Météo Aéronautique d'un coup d'oeil ! - Copyright ORBIFLY Décembre 2007 - Disclaimer

ORBIFLY MET'MAP TEAM :

Programmation & Développement : Alexandra Zaïnal
Sur une idée originale de : Baudouin d'Aumeries
Assistance à la programmation : Marc-Olivier Méhu
Soutien technique & logistique : Manuel Goepfert

Contact : metmap@orbifly.com




SOURCES & CREDITS :

   NOAA       Earth
Advisory